sensor_id;sensor_type;location;lat;lon;timestamp;pressure;altitude;pressure_sealevel;temperature;humidity
62164;BME280;48149;51.132;7.178;2023-06-26T00:01:29;98517.69;;;33.47;36.98
62164;BME280;48149;51.132;7.178;2023-06-26T00:03:56;98513.91;;;34.11;36.34
62164;BME280;48149;51.132;7.178;2023-06-26T00:06:21;98507.94;;;31.75;41.45
62164;BME280;48149;51.132;7.178;2023-06-26T00:08:49;98505.69;;;32.77;39.23
62164;BME280;48149;51.132;7.178;2023-06-26T00:11:14;98504.47;;;32.97;38.29
62164;BME280;48149;51.132;7.178;2023-06-26T00:13:40;98501.72;;;32.70;38.85
62164;BME280;48149;51.132;7.178;2023-06-26T00:16:05;98497.19;;;32.36;39.76
62164;BME280;48149;51.132;7.178;2023-06-26T00:18:30;98498.22;;;32.70;39.26
62164;BME280;48149;51.132;7.178;2023-06-26T00:20:55;98501.28;;;32.68;39.56
62164;BME280;48149;51.132;7.178;2023-06-26T00:23:21;98501.44;;;32.56;40.14
62164;BME280;48149;51.132;7.178;2023-06-26T00:25:46;98507.97;;;33.20;38.71
62164;BME280;48149;51.132;7.178;2023-06-26T00:28:11;98500.25;;;32.99;39.44
62164;BME280;48149;51.132;7.178;2023-06-26T00:30:37;98500.44;;;32.64;39.12
62164;BME280;48149;51.132;7.178;2023-06-26T00:33:02;98494.19;;;32.60;39.66
62164;BME280;48149;51.132;7.178;2023-06-26T00:35:27;98495.19;;;32.75;40.27
62164;BME280;48149;51.132;7.178;2023-06-26T00:37:52;98484.28;;;32.49;40.44
62164;BME280;48149;51.132;7.178;2023-06-26T00:40:17;98486.63;;;32.31;40.41
62164;BME280;48149;51.132;7.178;2023-06-26T00:42:43;98485.97;;;32.80;39.96
62164;BME280;48149;51.132;7.178;2023-06-26T00:45:08;98489.22;;;31.86;40.68
62164;BME280;48149;51.132;7.178;2023-06-26T00:47:33;98490.69;;;33.32;38.19
62164;BME280;48149;51.132;7.178;2023-06-26T00:49:59;98489.53;;;33.33;38.23
62164;BME280;48149;51.132;7.178;2023-06-26T00:52:24;98493.66;;;33.49;37.75
62164;BME280;48149;51.132;7.178;2023-06-26T00:54:50;98485.59;;;33.04;38.09
62164;BME280;48149;51.132;7.178;2023-06-26T00:57:16;98488.28;;;33.53;38.14
62164;BME280;48149;51.132;7.178;2023-06-26T00:59:41;98485.75;;;33.37;37.59
62164;BME280;48149;51.132;7.178;2023-06-26T01:02:07;98480.41;;;32.50;39.57
62164;BME280;48149;51.132;7.178;2023-06-26T01:04:32;98477.59;;;32.65;39.37
62164;BME280;48149;51.132;7.178;2023-06-26T01:06:57;98477.97;;;32.87;39.29
62164;BME280;48149;51.132;7.178;2023-06-26T01:09:23;98478.97;;;32.79;39.13
62164;BME280;48149;51.132;7.178;2023-06-26T01:11:49;98475.13;;;32.80;39.26
62164;BME280;48149;51.132;7.178;2023-06-26T01:14:14;98470.28;;;32.05;40.26
62164;BME280;48149;51.132;7.178;2023-06-26T01:16:40;98468.69;;;31.65;40.91
62164;BME280;48149;51.132;7.178;2023-06-26T01:19:09;98466.41;;;32.25;40.50
62164;BME280;48149;51.132;7.178;2023-06-26T01:21:35;98460.53;;;32.42;38.87
62164;BME280;48149;51.132;7.178;2023-06-26T01:24:17;98457.38;;;33.31;37.86
62164;BME280;48149;51.132;7.178;2023-06-26T01:26:48;98454.81;;;32.93;38.18
62164;BME280;48149;51.132;7.178;2023-06-26T01:29:15;98458.00;;;32.98;37.92
62164;BME280;48149;51.132;7.178;2023-06-26T01:31:41;98446.25;;;32.64;38.75
62164;BME280;48149;51.132;7.178;2023-06-26T01:34:07;98445.44;;;32.03;39.56
62164;BME280;48149;51.132;7.178;2023-06-26T01:36:32;98452.16;;;31.16;42.89
62164;BME280;48149;51.132;7.178;2023-06-26T01:38:57;98452.03;;;32.02;39.89
62164;BME280;48149;51.132;7.178;2023-06-26T01:41:23;98450.72;;;32.15;40.70
62164;BME280;48149;51.132;7.178;2023-06-26T01:46:18;98446.53;;;31.79;40.15
62164;BME280;48149;51.132;7.178;2023-06-26T01:48:59;98449.59;;;31.97;40.06
62164;BME280;48149;51.132;7.178;2023-06-26T01:51:29;98444.47;;;31.92;40.57
62164;BME280;48149;51.132;7.178;2023-06-26T01:53:55;98438.69;;;31.20;41.19
62164;BME280;48149;51.132;7.178;2023-06-26T01:56:22;98448.19;;;31.30;40.90
62164;BME280;48149;51.132;7.178;2023-06-26T01:58:48;98445.16;;;31.15;41.42
62164;BME280;48149;51.132;7.178;2023-06-26T02:01:15;98443.06;;;31.09;41.14
62164;BME280;48149;51.132;7.178;2023-06-26T02:03:40;98445.75;;;32.59;39.30
62164;BME280;48149;51.132;7.178;2023-06-26T02:06:05;98436.75;;;31.55;40.58
62164;BME280;48149;51.132;7.178;2023-06-26T02:08:30;98443.47;;;31.81;40.33
62164;BME280;48149;51.132;7.178;2023-06-26T02:10:55;98441.03;;;32.79;37.99
62164;BME280;48149;51.132;7.178;2023-06-26T02:13:21;98445.97;;;32.50;38.26
62164;BME280;48149;51.132;7.178;2023-06-26T02:15:46;98440.25;;;32.55;38.45
62164;BME280;48149;51.132;7.178;2023-06-26T02:18:11;98441.66;;;33.17;37.45
62164;BME280;48149;51.132;7.178;2023-06-26T02:20:36;98439.47;;;32.55;38.00
62164;BME280;48149;51.132;7.178;2023-06-26T02:23:02;98445.75;;;32.17;38.51
62164;BME280;48149;51.132;7.178;2023-06-26T02:25:27;98444.47;;;31.73;39.42
62164;BME280;48149;51.132;7.178;2023-06-26T02:27:52;98439.84;;;32.76;37.59
62164;BME280;48149;51.132;7.178;2023-06-26T02:30:17;98439.47;;;31.94;39.23
62164;BME280;48149;51.132;7.178;2023-06-26T02:32:42;98445.16;;;32.50;38.12
62164;BME280;48149;51.132;7.178;2023-06-26T02:35:08;98445.56;;;32.71;37.22
62164;BME280;48149;51.132;7.178;2023-06-26T02:37:33;98449.47;;;32.96;37.01
62164;BME280;48149;51.132;7.178;2023-06-26T02:39:58;98448.78;;;33.03;36.33
62164;BME280;48149;51.132;7.178;2023-06-26T02:42:24;98458.06;;;33.02;37.51
62164;BME280;48149;51.132;7.178;2023-06-26T02:44:49;98451.31;;;32.24;38.10
62164;BME280;48149;51.132;7.178;2023-06-26T02:47:14;98447.53;;;31.71;39.74
62164;BME280;48149;51.132;7.178;2023-06-26T02:49:39;98454.38;;;32.91;37.37
62164;BME280;48149;51.132;7.178;2023-06-26T02:52:04;98464.16;;;33.18;36.77
62164;BME280;48149;51.132;7.178;2023-06-26T02:54:30;98461.53;;;33.25;36.86
62164;BME280;48149;51.132;7.178;2023-06-26T02:56:55;98458.19;;;32.41;37.47
62164;BME280;48149;51.132;7.178;2023-06-26T02:59:20;98467.16;;;33.39;35.67
62164;BME280;48149;51.132;7.178;2023-06-26T03:01:45;98472.75;;;33.01;36.69
62164;BME280;48149;51.132;7.178;2023-06-26T03:04:10;98473.81;;;33.45;35.54
62164;BME280;48149;51.132;7.178;2023-06-26T03:06:36;98464.97;;;32.73;37.66
62164;BME280;48149;51.132;7.178;2023-06-26T03:09:01;98469.16;;;32.48;38.25
62164;BME280;48149;51.132;7.178;2023-06-26T03:11:27;98480.59;;;31.99;38.97
62164;BME280;48149;51.132;7.178;2023-06-26T03:13:52;98483.94;;;32.12;37.91
62164;BME280;48149;51.132;7.178;2023-06-26T03:16:18;98484.66;;;32.70;37.11
62164;BME280;48149;51.132;7.178;2023-06-26T03:18:43;98481.94;;;32.93;36.45
62164;BME280;48149;51.132;7.178;2023-06-26T03:21:08;98477.44;;;32.36;38.03
62164;BME280;48149;51.132;7.178;2023-06-26T03:23:34;98485.47;;;31.55;38.78
62164;BME280;48149;51.132;7.178;2023-06-26T03:25:59;98483.28;;;32.38;38.06
62164;BME280;48149;51.132;7.178;2023-06-26T03:28:24;98492.72;;;33.38;36.28
62164;BME280;48149;51.132;7.178;2023-06-26T03:30:49;98493.03;;;33.59;35.42
62164;BME280;48149;51.132;7.178;2023-06-26T03:33:15;98494.00;;;32.72;36.71
62164;BME280;48149;51.132;7.178;2023-06-26T03:35:40;98493.44;;;32.63;37.48
62164;BME280;48149;51.132;7.178;2023-06-26T03:38:05;98500.53;;;32.49;37.79
62164;BME280;48149;51.132;7.178;2023-06-26T03:40:30;98508.47;;;32.19;38.17
62164;BME280;48149;51.132;7.178;2023-06-26T03:42:56;98500.31;;;32.00;39.14
62164;BME280;48149;51.132;7.178;2023-06-26T03:45:21;98506.28;;;31.36;41.40
62164;BME280;48149;51.132;7.178;2023-06-26T03:47:46;98507.59;;;30.63;42.61
62164;BME280;48149;51.132;7.178;2023-06-26T03:50:18;98503.22;;;30.59;44.31
62164;BME280;48149;51.132;7.178;2023-06-26T03:52:43;98503.00;;;31.46;42.30
62164;BME280;48149;51.132;7.178;2023-06-26T03:55:08;98517.84;;;31.87;41.76
62164;BME280;48149;51.132;7.178;2023-06-26T03:57:34;98513.66;;;32.28;41.46
62164;BME280;48149;51.132;7.178;2023-06-26T03:59:59;98509.16;;;31.78;42.09
62164;BME280;48149;51.132;7.178;2023-06-26T04:02:24;98509.66;;;32.60;40.52
62164;BME280;48149;51.132;7.178;2023-06-26T04:04:49;98512.25;;;32.98;39.79
62164;BME280;48149;51.132;7.178;2023-06-26T04:07:15;98514.31;;;32.02;42.66
62164;BME280;48149;51.132;7.178;2023-06-26T04:09:40;98521.75;;;32.05;42.99
62164;BME280;48149;51.132;7.178;2023-06-26T04:12:05;98519.44;;;32.87;41.05
62164;BME280;48149;51.132;7.178;2023-06-26T04:14:30;98517.38;;;32.81;41.93
62164;BME280;48149;51.132;7.178;2023-06-26T04:16:56;98525.25;;;32.66;42.04
62164;BME280;48149;51.132;7.178;2023-06-26T04:19:22;98534.66;;;32.31;43.30
62164;BME280;48149;51.132;7.178;2023-06-26T04:21:47;98536.81;;;32.63;42.72
62164;BME280;48149;51.132;7.178;2023-06-26T04:24:13;98528.66;;;32.83;42.61
62164;BME280;48149;51.132;7.178;2023-06-26T04:26:38;98532.94;;;32.22;44.32
62164;BME280;48149;51.132;7.178;2023-06-26T04:29:06;98538.13;;;32.31;44.81
62164;BME280;48149;51.132;7.178;2023-06-26T04:31:31;98533.25;;;32.59;44.54
62164;BME280;48149;51.132;7.178;2023-06-26T04:33:56;98538.31;;;31.49;46.49
62164;BME280;48149;51.132;7.178;2023-06-26T04:36:22;98536.13;;;32.28;45.05
62164;BME280;48149;51.132;7.178;2023-06-26T04:38:48;98532.22;;;32.87;43.92
62164;BME280;48149;51.132;7.178;2023-06-26T04:41:14;98551.38;;;32.74;44.73
62164;BME280;48149;51.132;7.178;2023-06-26T04:43:39;98539.78;;;31.47;48.30
62164;BME280;48149;51.132;7.178;2023-06-26T04:46:04;98545.00;;;33.35;43.62
62164;BME280;48149;51.132;7.178;2023-06-26T04:48:30;98544.78;;;31.29;47.87
62164;BME280;48149;51.132;7.178;2023-06-26T04:50:56;98551.72;;;31.61;49.09
62164;BME280;48149;51.132;7.178;2023-06-26T04:53:21;98544.88;;;31.33;49.06
62164;BME280;48149;51.132;7.178;2023-06-26T04:55:47;98535.88;;;32.14;46.79
62164;BME280;48149;51.132;7.178;2023-06-26T04:58:13;98544.22;;;31.90;48.63
62164;BME280;48149;51.132;7.178;2023-06-26T05:00:38;98554.03;;;31.12;50.02
62164;BME280;48149;51.132;7.178;2023-06-26T05:03:07;98547.03;;;30.96;50.53
62164;BME280;48149;51.132;7.178;2023-06-26T05:05:32;98552.34;;;31.39;49.29
62164;BME280;48149;51.132;7.178;2023-06-26T05:07:57;98553.09;;;32.06;47.99
62164;BME280;48149;51.132;7.178;2023-06-26T05:10:23;98561.97;;;30.34;52.65
62164;BME280;48149;51.132;7.178;2023-06-26T05:12:48;98551.00;;;31.64;49.16
62164;BME280;48149;51.132;7.178;2023-06-26T05:15:13;98562.03;;;30.22;53.47
62164;BME280;48149;51.132;7.178;2023-06-26T05:17:38;98555.94;;;31.28;51.06
62164;BME280;48149;51.132;7.178;2023-06-26T05:20:04;98552.00;;;30.94;51.70
62164;BME280;48149;51.132;7.178;2023-06-26T05:22:30;98563.28;;;31.11;50.62
62164;BME280;48149;51.132;7.178;2023-06-26T05:24:56;98562.28;;;31.66;48.74
62164;BME280;48149;51.132;7.178;2023-06-26T05:27:24;98556.19;;;31.54;49.52
62164;BME280;48149;51.132;7.178;2023-06-26T05:29:49;98563.13;;;32.63;47.22
62164;BME280;48149;51.132;7.178;2023-06-26T05:32:15;98565.38;;;31.84;48.75
62164;BME280;48149;51.132;7.178;2023-06-26T05:34:42;98558.50;;;31.71;48.95
62164;BME280;48149;51.132;7.178;2023-06-26T05:37:08;98564.16;;;31.82;49.23
62164;BME280;48149;51.132;7.178;2023-06-26T05:39:33;98561.41;;;31.62;50.37
62164;BME280;48149;51.132;7.178;2023-06-26T05:41:59;98555.09;;;33.35;46.29
62164;BME280;48149;51.132;7.178;2023-06-26T05:44:24;98561.78;;;32.53;47.93
62164;BME280;48149;51.132;7.178;2023-06-26T05:46:49;98555.28;;;32.00;49.46
62164;BME280;48149;51.132;7.178;2023-06-26T05:49:14;98556.03;;;31.82;50.67
62164;BME280;48149;51.132;7.178;2023-06-26T05:51:40;98561.53;;;31.35;52.84
62164;BME280;48149;51.132;7.178;2023-06-26T05:54:05;98575.16;;;31.23;52.57
62164;BME280;48149;51.132;7.178;2023-06-26T05:56:30;98576.38;;;30.26;55.05
62164;BME280;48149;51.132;7.178;2023-06-26T05:58:56;98578.38;;;30.97;54.15
62164;BME280;48149;51.132;7.178;2023-06-26T06:01:22;98580.41;;;31.82;51.44
62164;BME280;48149;51.132;7.178;2023-06-26T06:03:47;98590.66;;;31.73;51.01
62164;BME280;48149;51.132;7.178;2023-06-26T06:06:12;98594.59;;;30.69;55.36
62164;BME280;48149;51.132;7.178;2023-06-26T06:08:37;98588.31;;;31.55;51.36
62164;BME280;48149;51.132;7.178;2023-06-26T06:11:03;98594.19;;;31.92;51.62
62164;BME280;48149;51.132;7.178;2023-06-26T06:13:28;98591.78;;;32.06;50.59
62164;BME280;48149;51.132;7.178;2023-06-26T06:15:53;98598.41;;;31.74;50.56
62164;BME280;48149;51.132;7.178;2023-06-26T06:18:19;98597.31;;;31.59;51.36
62164;BME280;48149;51.132;7.178;2023-06-26T06:20:45;98598.69;;;31.69;51.68
62164;BME280;48149;51.132;7.178;2023-06-26T06:23:10;98606.88;;;30.27;56.51
62164;BME280;48149;51.132;7.178;2023-06-26T06:25:35;98607.13;;;30.61;55.58
62164;BME280;48149;51.132;7.178;2023-06-26T06:28:00;98622.94;;;30.35;55.47
62164;BME280;48149;51.132;7.178;2023-06-26T06:30:25;98607.31;;;31.43;50.75
62164;BME280;48149;51.132;7.178;2023-06-26T06:32:52;98609.69;;;31.76;50.81
62164;BME280;48149;51.132;7.178;2023-06-26T06:35:18;98604.34;;;31.80;50.87
62164;BME280;48149;51.132;7.178;2023-06-26T06:37:43;98607.59;;;32.39;48.82
62164;BME280;48149;51.132;7.178;2023-06-26T06:40:09;98611.53;;;31.25;51.17
62164;BME280;48149;51.132;7.178;2023-06-26T06:42:34;98617.28;;;31.24;52.77
62164;BME280;48149;51.132;7.178;2023-06-26T06:45:03;98601.22;;;31.46;52.36
62164;BME280;48149;51.132;7.178;2023-06-26T06:47:29;98610.69;;;32.22;50.03
62164;BME280;48149;51.132;7.178;2023-06-26T06:49:54;98626.16;;;30.65;54.27
62164;BME280;48149;51.132;7.178;2023-06-26T06:52:19;98619.34;;;32.66;47.99
62164;BME280;48149;51.132;7.178;2023-06-26T06:54:54;98627.66;;;32.19;50.92
62164;BME280;48149;51.132;7.178;2023-06-26T06:57:23;98643.03;;;33.79;45.58
62164;BME280;48149;51.132;7.178;2023-06-26T06:59:48;98632.19;;;31.96;49.54
62164;BME280;48149;51.132;7.178;2023-06-26T07:02:14;98638.31;;;31.61;51.02
62164;BME280;48149;51.132;7.178;2023-06-26T07:04:39;98627.66;;;32.96;46.86
62164;BME280;48149;51.132;7.178;2023-06-26T07:07:04;98623.88;;;32.81;47.14
62164;BME280;48149;51.132;7.178;2023-06-26T07:09:30;98638.28;;;30.99;53.71
62164;BME280;48149;51.132;7.178;2023-06-26T07:11:55;98640.38;;;30.78;54.18
62164;BME280;48149;51.132;7.178;2023-06-26T07:14:20;98655.22;;;30.84;53.05
62164;BME280;48149;51.132;7.178;2023-06-26T07:16:45;98660.59;;;30.96;52.73
62164;BME280;48149;51.132;7.178;2023-06-26T07:19:10;98667.00;;;30.76;54.26
62164;BME280;48149;51.132;7.178;2023-06-26T07:21:36;98663.88;;;32.11;50.27
62164;BME280;48149;51.132;7.178;2023-06-26T07:24:01;98684.38;;;30.62;55.64
62164;BME280;48149;51.132;7.178;2023-06-26T07:26:26;98678.47;;;30.21;58.15
62164;BME280;48149;51.132;7.178;2023-06-26T07:28:51;98679.06;;;30.94;52.66
62164;BME280;48149;51.132;7.178;2023-06-26T07:31:17;98689.78;;;31.18;53.83
62164;BME280;48149;51.132;7.178;2023-06-26T07:33:42;98680.44;;;31.15;53.78
62164;BME280;48149;51.132;7.178;2023-06-26T07:36:07;98685.53;;;31.17;51.57
62164;BME280;48149;51.132;7.178;2023-06-26T07:38:32;98691.13;;;31.87;52.27
62164;BME280;48149;51.132;7.178;2023-06-26T07:40:58;98686.75;;;31.98;51.66
62164;BME280;48149;51.132;7.178;2023-06-26T07:43:23;98685.69;;;33.10;48.53
62164;BME280;48149;51.132;7.178;2023-06-26T07:45:48;98683.53;;;31.92;51.38
62164;BME280;48149;51.132;7.178;2023-06-26T07:48:13;98687.81;;;31.93;50.86
62164;BME280;48149;51.132;7.178;2023-06-26T07:50:39;98676.34;;;32.89;48.83
62164;BME280;48149;51.132;7.178;2023-06-26T07:53:04;98673.78;;;33.15;48.62
62164;BME280;48149;51.132;7.178;2023-06-26T07:55:30;98659.88;;;33.62;48.61
62164;BME280;48149;51.132;7.178;2023-06-26T07:57:56;98662.47;;;32.71;49.36
62164;BME280;48149;51.132;7.178;2023-06-26T08:00:21;98673.31;;;33.13;48.14
62164;BME280;48149;51.132;7.178;2023-06-26T08:02:46;98664.75;;;32.53;50.17
62164;BME280;48149;51.132;7.178;2023-06-26T08:05:11;98671.06;;;32.96;48.52
62164;BME280;48149;51.132;7.178;2023-06-26T08:07:36;98678.19;;;32.85;48.82
62164;BME280;48149;51.132;7.178;2023-06-26T08:10:02;98685.56;;;32.84;47.21
62164;BME280;48149;51.132;7.178;2023-06-26T08:12:27;98685.75;;;32.75;49.52
62164;BME280;48149;51.132;7.178;2023-06-26T08:14:52;98684.22;;;32.20;51.02
62164;BME280;48149;51.132;7.178;2023-06-26T08:17:18;98693.09;;;33.13;49.47
62164;BME280;48149;51.132;7.178;2023-06-26T08:19:43;98694.03;;;32.83;48.92
62164;BME280;48149;51.132;7.178;2023-06-26T08:22:08;98696.03;;;33.24;48.54
62164;BME280;48149;51.132;7.178;2023-06-26T08:24:33;98686.84;;;34.00;45.31
62164;BME280;48149;51.132;7.178;2023-06-26T08:26:58;98690.63;;;33.47;48.42
62164;BME280;48149;51.132;7.178;2023-06-26T08:29:24;98693.03;;;34.53;44.94
62164;BME280;48149;51.132;7.178;2023-06-26T08:31:49;98695.88;;;32.98;48.43
62164;BME280;48149;51.132;7.178;2023-06-26T08:34:14;98710.09;;;33.10;48.08
62164;BME280;48149;51.132;7.178;2023-06-26T08:36:39;98711.44;;;32.62;48.54
62164;BME280;48149;51.132;7.178;2023-06-26T08:39:05;98722.53;;;32.73;48.90
62164;BME280;48149;51.132;7.178;2023-06-26T08:41:30;98717.69;;;32.47;50.54
62164;BME280;48149;51.132;7.178;2023-06-26T08:43:56;98722.88;;;35.09;44.14
62164;BME280;48149;51.132;7.178;2023-06-26T08:46:21;98713.72;;;34.32;44.61
62164;BME280;48149;51.132;7.178;2023-06-26T08:48:56;98718.16;;;33.26;46.95
62164;BME280;48149;51.132;7.178;2023-06-26T08:51:23;98725.66;;;32.94;48.38
62164;BME280;48149;51.132;7.178;2023-06-26T08:54:09;98728.03;;;34.58;44.66
62164;BME280;48149;51.132;7.178;2023-06-26T08:56:37;98728.69;;;33.08;47.62
62164;BME280;48149;51.132;7.178;2023-06-26T08:59:05;98730.31;;;33.13;47.53
62164;BME280;48149;51.132;7.178;2023-06-26T09:01:33;98734.97;;;33.12;48.17
62164;BME280;48149;51.132;7.178;2023-06-26T09:03:58;98731.59;;;32.81;48.91
62164;BME280;48149;51.132;7.178;2023-06-26T09:06:24;98721.88;;;32.80;47.36
62164;BME280;48149;51.132;7.178;2023-06-26T09:08:49;98725.56;;;34.20;44.72
62164;BME280;48149;51.132;7.178;2023-06-26T09:11:14;98736.28;;;33.87;46.11
62164;BME280;48149;51.132;7.178;2023-06-26T09:13:40;98731.94;;;32.98;47.58
62164;BME280;48149;51.132;7.178;2023-06-26T09:16:08;98742.38;;;33.80;46.26
62164;BME280;48149;51.132;7.178;2023-06-26T09:18:34;98750.75;;;32.37;50.78
62164;BME280;48149;51.132;7.178;2023-06-26T09:20:59;98749.72;;;32.26;50.60
62164;BME280;48149;51.132;7.178;2023-06-26T09:23:24;98745.41;;;34.76;45.50
62164;BME280;48149;51.132;7.178;2023-06-26T09:25:51;98738.19;;;34.61;43.34
62164;BME280;48149;51.132;7.178;2023-06-26T09:28:16;98743.13;;;31.77;52.98
62164;BME280;48149;51.132;7.178;2023-06-26T09:30:43;98745.03;;;32.23;50.65
62164;BME280;48149;51.132;7.178;2023-06-26T09:33:14;98737.88;;;33.88;47.26
62164;BME280;48149;51.132;7.178;2023-06-26T09:35:40;98743.38;;;33.68;46.17
62164;BME280;48149;51.132;7.178;2023-06-26T09:38:05;98729.59;;;32.97;47.83
62164;BME280;48149;51.132;7.178;2023-06-26T09:40:30;98734.53;;;34.76;43.56
62164;BME280;48149;51.132;7.178;2023-06-26T09:43:02;98746.72;;;35.19;42.82
62164;BME280;48149;51.132;7.178;2023-06-26T09:45:27;98732.56;;;33.30;45.25
62164;BME280;48149;51.132;7.178;2023-06-26T09:47:52;98746.38;;;33.63;45.66
62164;BME280;48149;51.132;7.178;2023-06-26T09:50:21;98749.50;;;35.26;42.26
62164;BME280;48149;51.132;7.178;2023-06-26T09:52:46;98740.31;;;33.96;45.77
62164;BME280;48149;51.132;7.178;2023-06-26T09:55:12;98750.19;;;33.40;45.16
62164;BME280;48149;51.132;7.178;2023-06-26T09:57:38;98755.31;;;33.87;45.27
62164;BME280;48149;51.132;7.178;2023-06-26T10:00:04;98758.38;;;35.20;41.28
62164;BME280;48149;51.132;7.178;2023-06-26T10:02:30;98761.31;;;36.98;36.46
62164;BME280;48149;51.132;7.178;2023-06-26T10:04:55;98761.63;;;36.75;37.10
62164;BME280;48149;51.132;7.178;2023-06-26T10:07:20;98767.56;;;35.82;38.64
62164;BME280;48149;51.132;7.178;2023-06-26T10:09:47;98760.63;;;34.55;41.26
62164;BME280;48149;51.132;7.178;2023-06-26T10:12:25;98758.31;;;35.13;39.89
62164;BME280;48149;51.132;7.178;2023-06-26T10:14:51;98779.13;;;37.88;35.39
62164;BME280;48149;51.132;7.178;2023-06-26T10:17:19;98768.53;;;39.48;32.16
62164;BME280;48149;51.132;7.178;2023-06-26T10:19:45;98779.75;;;37.29;34.49
62164;BME280;48149;51.132;7.178;2023-06-26T10:22:13;98777.69;;;39.17;31.90
62164;BME280;48149;51.132;7.178;2023-06-26T10:24:39;98776.53;;;36.99;35.00
62164;BME280;48149;51.132;7.178;2023-06-26T10:27:14;98781.06;;;38.09;32.87
62164;BME280;48149;51.132;7.178;2023-06-26T10:29:41;98770.63;;;36.86;35.29
62164;BME280;48149;51.132;7.178;2023-06-26T10:32:07;98779.69;;;39.75;33.20
62164;BME280;48149;51.132;7.178;2023-06-26T10:34:34;98778.69;;;38.43;33.06
62164;BME280;48149;51.132;7.178;2023-06-26T10:37:00;98777.41;;;40.18;30.78
62164;BME280;48149;51.132;7.178;2023-06-26T10:39:26;98776.81;;;39.37;31.16
62164;BME280;48149;51.132;7.178;2023-06-26T10:41:52;98776.25;;;37.32;33.63
62164;BME280;48149;51.132;7.178;2023-06-26T10:44:19;98794.75;;;40.52;29.25
62164;BME280;48149;51.132;7.178;2023-06-26T10:46:52;98775.78;;;39.07;30.82
62164;BME280;48149;51.132;7.178;2023-06-26T10:49:18;98784.19;;;38.25;31.48
62164;BME280;48149;51.132;7.178;2023-06-26T10:51:45;98786.13;;;37.75;31.32
62164;BME280;48149;51.132;7.178;2023-06-26T10:54:11;98788.84;;;38.60;31.29
62164;BME280;48149;51.132;7.178;2023-06-26T10:56:48;98788.75;;;37.33;31.82
62164;BME280;48149;51.132;7.178;2023-06-26T10:59:16;98787.31;;;38.06;31.45
62164;BME280;48149;51.132;7.178;2023-06-26T11:01:41;98799.03;;;36.20;34.73
62164;BME280;48149;51.132;7.178;2023-06-26T11:04:07;98793.66;;;36.96;34.32
62164;BME280;48149;51.132;7.178;2023-06-26T11:06:33;98802.09;;;37.52;33.55
62164;BME280;48149;51.132;7.178;2023-06-26T11:14:15;98783.75;;;41.73;27.25
62164;BME280;48149;51.132;7.178;2023-06-26T11:16:41;98788.06;;;40.87;28.83
62164;BME280;48149;51.132;7.178;2023-06-26T11:19:07;98782.22;;;39.52;28.05
62164;BME280;48149;51.132;7.178;2023-06-26T11:21:32;98791.53;;;41.51;27.03
62164;BME280;48149;51.132;7.178;2023-06-26T11:23:58;98801.22;;;41.33;26.70
62164;BME280;48149;51.132;7.178;2023-06-26T11:26:25;98774.16;;;39.16;30.02
62164;BME280;48149;51.132;7.178;2023-06-26T11:28:52;98806.06;;;38.15;32.30
62164;BME280;48149;51.132;7.178;2023-06-26T11:34:12;98802.06;;;38.76;30.38
62164;BME280;48149;51.132;7.178;2023-06-26T11:36:38;98813.44;;;36.71;32.47
62164;BME280;48149;51.132;7.178;2023-06-26T11:39:05;98806.84;;;38.15;31.62
62164;BME280;48149;51.132;7.178;2023-06-26T11:41:36;98811.38;;;41.66;27.81
62164;BME280;48149;51.132;7.178;2023-06-26T11:44:05;98813.19;;;40.44;27.44
62164;BME280;48149;51.132;7.178;2023-06-26T11:46:30;98817.28;;;38.98;28.90
62164;BME280;48149;51.132;7.178;2023-06-26T11:48:56;98816.56;;;42.96;25.88
62164;BME280;48149;51.132;7.178;2023-06-26T11:51:21;98807.84;;;39.82;27.74
62164;BME280;48149;51.132;7.178;2023-06-26T11:53:47;98799.72;;;38.85;28.63
62164;BME280;48149;51.132;7.178;2023-06-26T11:56:13;98815.03;;;35.44;32.60
62164;BME280;48149;51.132;7.178;2023-06-26T12:01:25;98822.41;;;34.09;33.11
62164;BME280;48149;51.132;7.178;2023-06-26T12:03:51;98821.59;;;34.80;31.40
62164;BME280;48149;51.132;7.178;2023-06-26T12:06:16;98817.28;;;37.46;28.89
62164;BME280;48149;51.132;7.178;2023-06-26T12:08:42;98821.66;;;40.23;26.18
62164;BME280;48149;51.132;7.178;2023-06-26T12:11:08;98825.75;;;41.50;24.39
62164;BME280;48149;51.132;7.178;2023-06-26T12:13:34;98838.41;;;41.11;23.92
62164;BME280;48149;51.132;7.178;2023-06-26T12:15:59;98832.63;;;38.07;24.39
62164;BME280;48149;51.132;7.178;2023-06-26T12:18:25;98826.00;;;39.59;23.23
62164;BME280;48149;51.132;7.178;2023-06-26T12:20:51;98828.06;;;40.88;22.04
62164;BME280;48149;51.132;7.178;2023-06-26T12:23:17;98820.06;;;40.22;23.02
62164;BME280;48149;51.132;7.178;2023-06-26T12:25:42;98829.34;;;41.14;22.99
62164;BME280;48149;51.132;7.178;2023-06-26T12:28:17;98814.78;;;40.42;24.15
62164;BME280;48149;51.132;7.178;2023-06-26T12:30:46;98819.13;;;39.33;25.23
62164;BME280;48149;51.132;7.178;2023-06-26T12:33:15;98823.16;;;39.80;24.92
62164;BME280;48149;51.132;7.178;2023-06-26T12:35:41;98819.63;;;37.51;27.63
62164;BME280;48149;51.132;7.178;2023-06-26T12:38:07;98832.22;;;36.29;28.08
62164;BME280;48149;51.132;7.178;2023-06-26T12:40:36;98827.66;;;35.96;28.41
62164;BME280;48149;51.132;7.178;2023-06-26T12:43:11;98844.53;;;33.46;31.61
62164;BME280;48149;51.132;7.178;2023-06-26T12:45:39;98845.22;;;34.04;31.66
62164;BME280;48149;51.132;7.178;2023-06-26T12:48:48;98857.22;;;34.98;30.80
62164;BME280;48149;51.132;7.178;2023-06-26T12:50:54;98860.97;;;35.16;30.20
62164;BME280;48149;51.132;7.178;2023-06-26T12:53:20;98869.34;;;36.04;28.96
62164;BME280;48149;51.132;7.178;2023-06-26T12:55:45;98862.00;;;37.13;28.82
62164;BME280;48149;51.132;7.178;2023-06-26T12:58:10;98853.69;;;37.92;27.82
62164;BME280;48149;51.132;7.178;2023-06-26T13:00:35;98864.34;;;34.79;30.90
62164;BME280;48149;51.132;7.178;2023-06-26T13:03:00;98870.88;;;34.75;31.67
62164;BME280;48149;51.132;7.178;2023-06-26T13:05:26;98869.69;;;31.95;34.28
62164;BME280;48149;51.132;7.178;2023-06-26T13:07:51;98876.25;;;33.23;33.21